Time;durP1;ratioP1;P1;durP2;ratioP2;P2;SDS_P1;SDS_P2;PMS_P1;PMS_P2;Temp;Humidity;BMP_temperature;BMP_pressure;BME280_temperature;BME280_humidity;BME280_pressure;Samples;Min_cycle;Max_cycle;Signal;HPM_P1;HPM_P2
2022/07/15 00:00:36;;;;;;;;;;;20.70;96.80;;;;;;1998459;28;19937;-69
2022/07/15 00:01:35;;;;;;;;;;;20.70;97.10;;;;;;1998735;28;19905;-69
2022/07/15 00:02:34;;;;;;;;;;;20.80;96.30;;;;;;1998689;28;19937;-68
2022/07/15 00:03:32;;;;;;;;;;;20.80;77.50;;;;;;1998592;28;19906;-69
2022/07/15 00:04:31;;;;;;;;;;;20.80;77.20;;;;;;1998577;28;19906;-68
2022/07/15 00:05:29;;;;;;;;;;;20.70;76.00;;;;;;1998730;28;19906;-68
2022/07/15 00:06:28;;;;;;;;;;;20.70;75.10;;;;;;1998570;28;19910;-68
2022/07/15 00:07:26;;;;;;;;;;;20.70;74.10;;;;;;1998666;28;19909;-69
2022/07/15 00:08:27;;;;;;;;;;;20.80;73.50;;;;;;1998561;28;19905;-68
2022/07/15 00:10:44;;;;;;;;;;;20.70;72.50;;;;;;1982170;29;19970;-68
2022/07/15 00:11:42;;;;;;;;;;;20.70;72.20;;;;;;1994325;28;20004;-68
2022/07/15 00:12:42;;;;;;;;;;;20.70;71.90;;;;;;1998573;28;19993;-68
2022/07/15 00:13:41;;;;;;;;;;;20.70;71.50;;;;;;1998457;28;19906;-68
2022/07/15 00:14:39;;;;;;;;;;;20.70;71.40;;;;;;1997992;28;19921;-68
2022/07/15 00:15:38;;;;;;;;;;;20.70;71.20;;;;;;1997948;28;20356;-68
2022/07/15 00:16:36;;;;;;;;;;;20.80;70.70;;;;;;1998484;28;20056;-67
2022/07/15 00:17:35;;;;;;;;;;;20.80;70.80;;;;;;1998526;28;19906;-68
2022/07/15 00:18:33;;;;;;;;;;;20.70;70.10;;;;;;1998578;28;20132;-68
2022/07/15 00:19:33;;;;;;;;;;;20.80;70.30;;;;;;1998608;28;19913;-67
2022/07/15 00:20:34;;;;;;;;;;;20.70;69.80;;;;;;1998432;28;19988;-68
2022/07/15 00:21:33;;;;;;;;;;;20.70;69.80;;;;;;1998594;28;19927;-69
2022/07/15 00:22:31;;;;;;;;;;;20.70;69.70;;;;;;1998663;28;19956;-68
2022/07/15 00:23:30;;;;;;;;;;;20.70;69.90;;;;;;1998469;28;19905;-68
2022/07/15 00:24:29;;;;;;;;;;;20.70;69.90;;;;;;1998414;28;19913;-68
2022/07/15 00:25:27;;;;;;;;;;;20.70;70.00;;;;;;1998484;28;20277;-69
2022/07/15 00:26:26;;;;;;;;;;;20.70;70.10;;;;;;1998461;28;19913;-68
2022/07/15 00:27:24;;;;;;;;;;;20.70;69.50;;;;;;1998498;28;20280;-68
2022/07/15 00:28:24;;;;;;;;;;;20.70;69.20;;;;;;1998422;28;19905;-68
2022/07/15 00:29:23;;;;;;;;;;;20.70;69.60;;;;;;1998411;28;19912;-68
2022/07/15 00:30:22;;;;;;;;;;;20.70;69.50;;;;;;1998171;28;19905;-68
2022/07/15 00:31:21;;;;;;;;;;;20.70;69.30;;;;;;1998432;28;19960;-68
2022/07/15 00:32:19;;;;;;;;;;;20.70;69.30;;;;;;1998403;28;19968;-68
2022/07/15 00:33:18;;;;;;;;;;;20.70;69.20;;;;;;1998453;28;19906;-67
2022/07/15 00:34:16;;;;;;;;;;;20.80;69.10;;;;;;1998584;28;20066;-68
2022/07/15 00:35:15;;;;;;;;;;;20.70;69.30;;;;;;1998535;28;20272;-68
2022/07/15 00:36:14;;;;;;;;;;;20.70;69.20;;;;;;1998457;28;19905;-69
2022/07/15 00:37:13;;;;;;;;;;;20.70;69.30;;;;;;1998352;28;20415;-68
2022/07/15 00:38:11;;;;;;;;;;;20.70;69.30;;;;;;1997912;28;20372;-69
2022/07/15 00:39:10;;;;;;;;;;;20.70;69.30;;;;;;1997805;28;19937;-69
2022/07/15 00:40:08;;;;;;;;;;;20.70;69.00;;;;;;1998319;28;20352;-68
2022/07/15 00:41:07;;;;;;;;;;;20.70;69.20;;;;;;1998361;28;20327;-69
2022/07/15 00:42:05;;;;;;;;;;;20.70;68.70;;;;;;1998494;28;20364;-69
2022/07/15 00:43:04;;;;;;;;;;;20.70;69.10;;;;;;1998581;28;19906;-68
2022/07/15 00:44:03;;;;;;;;;;;20.70;69.00;;;;;;1998307;28;19906;-69
2022/07/15 00:45:01;;;;;;;;;;;20.70;68.90;;;;;;1997592;28;19906;-68
2022/07/15 00:46:00;;;;;;;;;;;20.70;69.10;;;;;;1997789;28;19949;-68
2022/07/15 00:47:00;;;;;;;;;;;20.70;68.90;;;;;;1998303;28;20024;-68
2022/07/15 00:47:58;;;;;;;;;;;20.70;68.60;;;;;;1998416;28;19941;-68
2022/07/15 00:48:59;;;;;;;;;;;20.70;69.00;;;;;;1997600;28;20356;-68
2022/07/15 00:49:58;;;;;;;;;;;20.70;68.70;;;;;;1997731;28;19905;-68
2022/07/15 00:50:56;;;;;;;;;;;20.70;68.50;;;;;;1998265;28;19910;-68
2022/07/15 00:51:55;;;;;;;;;;;20.70;68.30;;;;;;1998294;28;19912;-67
2022/07/15 00:53:07;;;;;;;;;;;20.70;68.80;;;;;;1998312;28;20279;-68
2022/07/15 00:54:08;;;;;;;;;;;20.70;68.50;;;;;;1998223;28;19949;-68
2022/07/15 00:55:08;;;;;;;;;;;20.70;68.40;;;;;;1998454;28;19913;-68
2022/07/15 00:56:08;;;;;;;;;;;20.70;68.50;;;;;;1998311;28;19906;-68
2022/07/15 00:57:07;;;;;;;;;;;20.70;68.50;;;;;;1998208;28;19906;-69
2022/07/15 00:58:06;;;;;;;;;;;20.70;68.20;;;;;;1998253;28;20036;-68
2022/07/15 00:59:05;;;;;;;;;;;20.60;68.40;;;;;;1998139;28;19905;-68
2022/07/15 01:00:05;;;;;;;;;;;20.70;68.30;;;;;;1998218;28;20249;-68
2022/07/15 01:01:04;;;;;;;;;;;20.70;68.20;;;;;;1998075;28;19917;-68
2022/07/15 01:02:03;;;;;;;;;;;20.70;68.20;;;;;;1998120;28;19912;-68
2022/07/15 01:03:02;;;;;;;;;;;20.70;68.40;;;;;;1998135;28;19913;-68
2022/07/15 01:04:01;;;;;;;;;;;20.60;68.00;;;;;;1998214;28;19912;-67
2022/07/15 01:05:03;;;;;;;;;;;20.60;68.10;;;;;;1997475;28;19906;-68
2022/07/15 01:06:02;;;;;;;;;;;20.70;68.20;;;;;;1997451;28;19906;-67
2022/07/15 01:07:00;;;;;;;;;;;20.60;67.90;;;;;;1998251;28;19996;-68
2022/07/15 01:07:59;;;;;;;;;;;20.60;67.80;;;;;;1998158;28;19959;-68
2022/07/15 01:08:57;;;;;;;;;;;20.70;68.00;;;;;;1998358;28;19916;-68
2022/07/15 01:09:56;;;;;;;;;;;20.60;68.00;;;;;;1998238;28;20004;-68
2022/07/15 01:10:54;;;;;;;;;;;20.70;68.10;;;;;;1997914;28;19992;-68
2022/07/15 01:11:53;;;;;;;;;;;20.70;67.70;;;;;;1998213;28;19906;-69
2022/07/15 01:12:52;;;;;;;;;;;20.70;67.60;;;;;;1998205;28;19913;-69
2022/07/15 01:13:51;;;;;;;;;;;20.70;68.00;;;;;;1998207;28;19905;-69
2022/07/15 01:14:50;;;;;;;;;;;20.70;67.70;;;;;;1998158;28;20383;-69
2022/07/15 01:15:49;;;;;;;;;;;20.70;67.60;;;;;;1998087;28;19905;-69
2022/07/15 01:16:48;;;;;;;;;;;20.60;67.90;;;;;;1998134;28;20020;-68
2022/07/15 01:17:46;;;;;;;;;;;20.60;67.50;;;;;;1998135;28;19905;-69
2022/07/15 01:18:45;;;;;;;;;;;20.70;67.40;;;;;;1998261;28;19912;-69
2022/07/15 01:19:43;;;;;;;;;;;20.60;67.40;;;;;;1998192;28;19974;-68
2022/07/15 01:20:42;;;;;;;;;;;20.60;67.40;;;;;;1997981;28;20292;-68
2022/07/15 01:21:40;;;;;;;;;;;20.70;67.50;;;;;;1998080;28;19913;-68
2022/07/15 01:22:39;;;;;;;;;;;20.60;67.40;;;;;;1998245;28;19905;-68
2022/07/15 01:23:42;;;;;;;;;;;20.60;67.30;;;;;;1998035;28;19928;-68
2022/07/15 01:24:40;;;;;;;;;;;20.60;67.20;;;;;;1997304;28;19941;-69
2022/07/15 01:25:39;;;;;;;;;;;20.70;67.50;;;;;;1997497;28;19910;-69
2022/07/15 01:26:38;;;;;;;;;;;20.70;67.40;;;;;;1998099;28;20304;-69
2022/07/15 01:27:37;;;;;;;;;;;20.60;67.20;;;;;;1998060;28;19905;-68
2022/07/15 01:28:36;;;;;;;;;;;20.60;67.00;;;;;;1998190;28;19906;-69
2022/07/15 01:29:34;;;;;;;;;;;20.60;67.10;;;;;;1998075;28;19949;-70
2022/07/15 01:30:33;;;;;;;;;;;20.60;66.90;;;;;;1997904;28;20048;-69
2022/07/15 01:31:31;;;;;;;;;;;20.60;66.90;;;;;;1998088;28;19910;-69
2022/07/15 01:32:30;;;;;;;;;;;20.60;66.80;;;;;;1997922;28;20086;-68
2022/07/15 01:33:29;;;;;;;;;;;20.60;66.80;;;;;;1997934;28;19956;-68
2022/07/15 01:34:28;;;;;;;;;;;20.60;66.80;;;;;;1997860;28;19921;-68
2022/07/15 01:35:28;;;;;;;;;;;20.60;66.70;;;;;;1998115;28;19963;-68
2022/07/15 01:36:26;;;;;;;;;;;20.70;66.90;;;;;;1997892;28;19906;-69
2022/07/15 01:37:25;;;;;;;;;;;20.60;67.00;;;;;;1997923;28;20368;-68
2022/07/15 01:38:23;;;;;;;;;;;20.70;67.40;;;;;;1997891;28;19906;-68
2022/07/15 01:39:22;;;;;;;;;;;20.60;67.20;;;;;;1998059;28;20012;-68
2022/07/15 01:40:21;;;;;;;;;;;20.60;67.10;;;;;;1997862;28;19909;-68
2022/07/15 01:41:19;;;;;;;;;;;20.60;67.10;;;;;;1998037;28;19913;-69
2022/07/15 01:42:18;;;;;;;;;;;20.60;66.90;;;;;;1997926;28;19989;-68
2022/07/15 01:43:16;;;;;;;;;;;20.60;67.10;;;;;;1997997;28;20368;-68
2022/07/15 01:44:15;;;;;;;;;;;20.60;66.90;;;;;;1997957;28;19906;-68
2022/07/15 01:45:13;;;;;;;;;;;20.60;66.90;;;;;;1998078;28;19913;-67
2022/07/15 01:46:12;;;;;;;;;;;20.60;66.90;;;;;;1997861;28;20415;-68
2022/07/15 01:47:10;;;;;;;;;;;20.60;67.10;;;;;;1997890;28;20098;-68
2022/07/15 01:49:21;;;;;;;;;;;20.60;66.90;;;;;;1997824;28;20264;-69
2022/07/15 01:49:31;;;;;;;;;;;20.60;66.60;;;;;;1997707;28;19968;-69
2022/07/15 01:50:30;;;;;;;;;;;20.60;66.90;;;;;;1997879;28;19959;-69
2022/07/15 01:51:29;;;;;;;;;;;20.60;66.50;;;;;;1997772;28;19984;-68
2022/07/15 01:52:28;;;;;;;;;;;20.70;67.00;;;;;;1997883;28;20411;-69
2022/07/15 01:53:27;;;;;;;;;;;20.60;66.90;;;;;;1997777;28;19906;-68
2022/07/15 01:54:27;;;;;;;;;;;20.60;66.50;;;;;;1997809;28;19944;-68
2022/07/15 01:55:25;;;;;;;;;;;20.60;66.90;;;;;;1997891;28;20380;-68
2022/07/15 01:56:24;;;;;;;;;;;20.60;66.70;;;;;;1997845;28;19941;-69
2022/07/15 01:57:22;;;;;;;;;;;20.60;66.70;;;;;;1997846;28;20315;-69
2022/07/15 01:58:21;;;;;;;;;;;20.60;66.80;;;;;;1998011;28;19917;-69
2022/07/15 01:59:23;;;;;;;;;;;20.60;66.50;;;;;;1997820;28;20375;-69
2022/07/15 02:00:22;;;;;;;;;;;20.60;66.50;;;;;;1997429;28;19906;-68
2022/07/15 02:01:21;;;;;;;;;;;20.60;66.80;;;;;;1997873;28;19996;-69
2022/07/15 02:02:19;;;;;;;;;;;20.60;66.70;;;;;;1997782;28;20210;-69
2022/07/15 02:03:18;;;;;;;;;;;20.60;66.80;;;;;;1997752;28;19996;-69
2022/07/15 02:04:17;;;;;;;;;;;20.60;67.00;;;;;;1997727;28;19905;-69
2022/07/15 02:05:15;;;;;;;;;;;20.60;66.70;;;;;;1997728;28;19912;-69
2022/07/15 02:06:14;;;;;;;;;;;20.60;66.90;;;;;;1997418;28;20012;-69
2022/07/15 02:07:12;;;;;;;;;;;20.60;66.80;;;;;;1997747;28;19905;-68
2022/07/15 02:08:11;;;;;;;;;;;20.60;66.80;;;;;;1997826;28;19976;-69
2022/07/15 02:09:09;;;;;;;;;;;20.60;66.80;;;;;;1997752;28;20242;-69
2022/07/15 02:10:08;;;;;;;;;;;20.60;66.80;;;;;;1997722;28;20011;-69
2022/07/15 02:11:07;;;;;;;;;;;20.60;66.80;;;;;;1997661;28;19942;-69
2022/07/15 02:12:06;;;;;;;;;;;20.60;66.60;;;;;;1997590;28;19913;-69
2022/07/15 02:13:05;;;;;;;;;;;20.60;67.00;;;;;;1997760;28;20000;-69
2022/07/15 02:14:04;;;;;;;;;;;20.60;66.50;;;;;;1997701;28;19992;-68
2022/07/15 02:15:03;;;;;;;;;;;20.60;66.60;;;;;;1997584;28;19910;-69
2022/07/15 02:16:02;;;;;;;;;;;20.60;66.40;;;;;;1997520;28;19988;-69
2022/07/15 02:17:01;;;;;;;;;;;20.60;66.50;;;;;;1997714;28;19905;-69
2022/07/15 02:17:59;;;;;;;;;;;20.60;66.60;;;;;;1997657;28;20280;-69
2022/07/15 02:18:58;;;;;;;;;;;20.60;66.60;;;;;;1997834;28;19925;-69
2022/07/15 02:19:56;;;;;;;;;;;20.60;66.60;;;;;;1997559;28;19949;-69
2022/07/15 02:20:55;;;;;;;;;;;20.60;66.60;;;;;;1997572;28;19952;-69
2022/07/15 02:21:54;;;;;;;;;;;20.60;66.50;;;;;;1997732;28;19949;-69
2022/07/15 02:22:52;;;;;;;;;;;20.60;66.70;;;;;;1997625;28;20280;-69
2022/07/15 02:25:42;;;;;;;;;;;20.60;66.50;;;;;;1997752;28;19905;-68
2022/07/15 02:26:44;;;;;;;;;;;20.60;66.30;;;;;;1997633;28;19971;-68
2022/07/15 02:27:43;;;;;;;;;;;20.60;66.30;;;;;;1997827;28;19906;-68
2022/07/15 02:28:42;;;;;;;;;;;20.60;66.40;;;;;;1997587;28;19988;-68
2022/07/15 02:29:40;;;;;;;;;;;20.60;66.50;;;;;;1997835;28;19905;-68
2022/07/15 02:30:40;;;;;;;;;;;20.60;66.40;;;;;;1997566;28;20352;-68
2022/07/15 02:31:38;;;;;;;;;;;20.60;66.50;;;;;;1997524;28;20379;-68
2022/07/15 02:32:37;;;;;;;;;;;20.50;66.30;;;;;;1997483;28;19910;-69
2022/07/15 02:33:36;;;;;;;;;;;20.60;66.40;;;;;;1997614;28;20327;-68
2022/07/15 02:34:34;;;;;;;;;;;20.50;66.30;;;;;;1997412;28;19913;-68
2022/07/15 02:35:33;;;;;;;;;;;20.60;66.30;;;;;;1997647;28;19906;-69
2022/07/15 02:36:31;;;;;;;;;;;20.60;66.70;;;;;;1997630;28;19906;-68
2022/07/15 02:37:31;;;;;;;;;;;20.60;66.50;;;;;;1997446;28;20436;-69
2022/07/15 02:38:29;;;;;;;;;;;20.50;66.60;;;;;;1997502;28;19988;-68
2022/07/15 02:39:28;;;;;;;;;;;20.60;66.50;;;;;;1997594;28;19913;-68
2022/07/15 02:40:26;;;;;;;;;;;20.60;66.30;;;;;;1997435;28;19905;-69
2022/07/15 02:41:25;;;;;;;;;;;20.50;66.30;;;;;;1997503;28;19989;-69
2022/07/15 02:42:23;;;;;;;;;;;20.60;66.40;;;;;;1997469;28;19905;-68
2022/07/15 02:43:22;;;;;;;;;;;20.50;66.40;;;;;;1997436;28;19906;-68
2022/07/15 02:44:21;;;;;;;;;;;20.60;66.50;;;;;;1997381;28;19953;-68
2022/07/15 02:45:20;;;;;;;;;;;20.60;66.30;;;;;;1997435;28;19937;-68
2022/07/15 02:46:19;;;;;;;;;;;20.50;66.30;;;;;;1997538;28;19912;-67
2022/07/15 02:47:17;;;;;;;;;;;20.50;66.40;;;;;;1997423;28;19917;-68
2022/07/15 02:48:16;;;;;;;;;;;20.60;66.30;;;;;;1997341;28;19961;-68
2022/07/15 02:49:14;;;;;;;;;;;20.60;66.30;;;;;;1997600;28;20040;-68
2022/07/15 02:50:13;;;;;;;;;;;20.50;66.30;;;;;;1996740;28;20416;-69
2022/07/15 02:51:12;;;;;;;;;;;20.60;66.30;;;;;;1996912;28;19912;-68
2022/07/15 02:52:10;;;;;;;;;;;20.60;66.30;;;;;;1997413;28;19917;-69
2022/07/15 02:53:08;;;;;;;;;;;20.60;66.40;;;;;;1997402;28;19964;-68
2022/07/15 02:54:07;;;;;;;;;;;20.60;66.50;;;;;;1997445;28;19917;-68
2022/07/15 02:55:06;;;;;;;;;;;20.50;66.30;;;;;;1997418;28;19960;-68
2022/07/15 02:56:05;;;;;;;;;;;20.60;66.60;;;;;;1997389;28;19913;-69
2022/07/15 02:57:03;;;;;;;;;;;20.50;66.20;;;;;;1997426;28;19906;-69
2022/07/15 02:58:02;;;;;;;;;;;20.50;66.20;;;;;;1997512;28;19909;-69
2022/07/15 02:59:00;;;;;;;;;;;20.50;66.30;;;;;;1997386;28;19964;-69
2022/07/15 02:59:59;;;;;;;;;;;20.50;66.20;;;;;;1997363;28;19905;-69
2022/07/15 03:01:00;;;;;;;;;;;20.50;66.30;;;;;;1997093;28;20016;-69
2022/07/15 03:01:59;;;;;;;;;;;20.60;66.30;;;;;;1997013;28;19912;-69
2022/07/15 03:02:57;;;;;;;;;;;20.50;66.20;;;;;;1997197;28;19909;-69
2022/07/15 03:03:56;;;;;;;;;;;20.50;66.20;;;;;;1997336;28;20324;-69
2022/07/15 03:04:55;;;;;;;;;;;20.50;66.20;;;;;;1997291;28;20367;-68
2022/07/15 03:05:55;;;;;;;;;;;20.50;66.20;;;;;;1997280;28;19909;-70
2022/07/15 03:06:53;;;;;;;;;;;20.50;66.40;;;;;;1997307;28;19945;-68
2022/07/15 03:07:52;;;;;;;;;;;20.50;66.50;;;;;;1997281;28;19929;-69
2022/07/15 03:08:50;;;;;;;;;;;20.50;66.50;;;;;;1997344;28;19912;-68
2022/07/15 03:09:49;;;;;;;;;;;20.50;66.50;;;;;;1997218;28;20012;-68
2022/07/15 03:10:47;;;;;;;;;;;20.50;66.30;;;;;;1997315;28;19916;-68
2022/07/15 03:11:46;;;;;;;;;;;20.60;66.50;;;;;;1997524;28;19913;-69
2022/07/15 03:12:44;;;;;;;;;;;20.50;66.40;;;;;;1997185;28;19956;-68
2022/07/15 03:13:43;;;;;;;;;;;20.50;66.20;;;;;;1997149;28;20299;-68
2022/07/15 03:14:41;;;;;;;;;;;20.50;66.40;;;;;;1997155;28;20391;-68
2022/07/15 03:15:40;;;;;;;;;;;20.50;66.40;;;;;;1997256;28;20371;-68
2022/07/15 03:16:38;;;;;;;;;;;20.50;66.40;;;;;;1997350;28;20003;-67
2022/07/15 03:17:39;;;;;;;;;;;20.50;66.20;;;;;;1997250;28;19910;-68
2022/07/15 03:18:38;;;;;;;;;;;20.50;66.10;;;;;;1997307;28;19910;-68
2022/07/15 03:19:36;;;;;;;;;;;20.50;66.20;;;;;;1997328;28;19912;-68
2022/07/15 03:20:35;;;;;;;;;;;20.50;66.10;;;;;;1997099;28;19912;-69
2022/07/15 03:21:34;;;;;;;;;;;20.50;66.20;;;;;;1997216;28;19952;-68
2022/07/15 03:22:32;;;;;;;;;;;20.50;66.20;;;;;;1997420;28;19906;-67
2022/07/15 03:23:31;;;;;;;;;;;20.50;66.20;;;;;;1997305;28;19992;-68
2022/07/15 03:24:29;;;;;;;;;;;20.50;66.20;;;;;;1996577;28;19964;-68
2022/07/15 03:25:28;;;;;;;;;;;20.50;66.20;;;;;;1996745;28;20360;-68
2022/07/15 03:26:26;;;;;;;;;;;20.50;66.20;;;;;;1996617;28;19906;-69
2022/07/15 03:27:25;;;;;;;;;;;20.50;66.30;;;;;;1996329;28;20019;-68
2022/07/15 03:28:24;;;;;;;;;;;20.50;66.20;;;;;;1996893;28;19905;-68
2022/07/15 03:29:22;;;;;;;;;;;20.50;66.20;;;;;;1997185;28;20356;-68
2022/07/15 03:30:22;;;;;;;;;;;20.50;66.20;;;;;;1997118;28;19906;-68
2022/07/15 03:31:20;;;;;;;;;;;20.50;66.30;;;;;;1997108;28;20327;-68
2022/07/15 03:32:20;;;;;;;;;;;20.50;66.30;;;;;;1997151;28;19959;-68
2022/07/15 03:33:18;;;;;;;;;;;20.50;66.30;;;;;;1997138;28;20046;-69
2022/07/15 03:34:17;;;;;;;;;;;20.50;66.30;;;;;;1997097;28;20038;-69
2022/07/15 03:35:15;;;;;;;;;;;20.50;66.40;;;;;;1997088;28;19913;-68
2022/07/15 03:36:14;;;;;;;;;;;20.50;66.40;;;;;;1997084;28;19910;-68
2022/07/15 03:37:12;;;;;;;;;;;20.50;66.50;;;;;;1997161;28;19933;-69
2022/07/15 03:38:11;;;;;;;;;;;20.50;66.30;;;;;;1997150;28;19968;-69
2022/07/15 03:39:10;;;;;;;;;;;20.50;66.40;;;;;;1997133;28;19906;-68
2022/07/15 03:40:09;;;;;;;;;;;20.50;66.30;;;;;;1997160;28;19906;-67
2022/07/15 03:41:08;;;;;;;;;;;20.50;66.50;;;;;;1997052;28;20288;-67
2022/07/15 03:42:07;;;;;;;;;;;20.50;66.50;;;;;;1997086;28;20353;-68
2022/07/15 03:43:05;;;;;;;;;;;20.50;66.40;;;;;;1996445;28;19928;-68
2022/07/15 03:44:04;;;;;;;;;;;20.50;66.40;;;;;;1996583;28;20009;-68
2022/07/15 03:45:03;;;;;;;;;;;20.50;66.50;;;;;;1997158;28;19948;-68
2022/07/15 03:46:01;;;;;;;;;;;20.50;66.50;;;;;;1997070;28;19928;-68
2022/07/15 03:47:00;;;;;;;;;;;20.50;67.10;;;;;;1997029;28;19905;-68
2022/07/15 03:47:58;;;;;;;;;;;20.50;66.40;;;;;;1997186;28;19981;-68
2022/07/15 03:48:57;;;;;;;;;;;20.50;66.30;;;;;;1997017;28;20060;-68
2022/07/15 03:49:55;;;;;;;;;;;20.50;66.40;;;;;;1997132;28;20346;-68
2022/07/15 03:50:54;;;;;;;;;;;20.50;66.30;;;;;;1997126;28;19937;-68
2022/07/15 03:51:52;;;;;;;;;;;20.50;66.20;;;;;;1997152;28;19917;-68
2022/07/15 03:52:51;;;;;;;;;;;20.50;66.30;;;;;;1997096;28;19917;-68
2022/07/15 03:53:50;;;;;;;;;;;20.50;66.30;;;;;;1997089;28;20348;-67
2022/07/15 03:54:49;;;;;;;;;;;20.50;66.30;;;;;;1996944;28;19933;-68
2022/07/15 03:55:47;;;;;;;;;;;20.50;66.40;;;;;;1997163;28;19960;-69
2022/07/15 03:56:49;;;;;;;;;;;20.50;66.30;;;;;;1997032;28;19941;-68
2022/07/15 03:57:47;;;;;;;;;;;20.50;66.40;;;;;;1997338;28;20044;-69
2022/07/15 03:58:46;;;;;;;;;;;20.50;66.40;;;;;;1997059;28;19905;-69
2022/07/15 03:59:44;;;;;;;;;;;20.50;66.30;;;;;;1997215;28;19906;-69
2022/07/15 04:00:43;;;;;;;;;;;20.50;66.40;;;;;;1996801;28;20016;-68
2022/07/15 04:01:41;;;;;;;;;;;20.50;66.40;;;;;;1997093;28;20364;-69
2022/07/15 04:02:40;;;;;;;;;;;20.50;66.50;;;;;;1996969;28;19905;-69
2022/07/15 04:03:40;;;;;;;;;;;20.50;66.50;;;;;;1996957;28;19952;-69
2022/07/15 04:04:38;;;;;;;;;;;20.50;66.50;;;;;;1997127;28;19909;-69
2022/07/15 04:05:38;;;;;;;;;;;20.50;66.40;;;;;;1997040;28;19997;-69
2022/07/15 04:06:36;;;;;;;;;;;20.50;66.40;;;;;;1997004;28;19972;-69
2022/07/15 04:07:35;;;;;;;;;;;20.50;66.40;;;;;;1996971;28;19960;-69
2022/07/15 04:08:33;;;;;;;;;;;20.50;66.30;;;;;;1996928;28;19938;-69
2022/07/15 04:09:32;;;;;;;;;;;20.50;66.40;;;;;;1996975;28;20252;-68
2022/07/15 04:10:31;;;;;;;;;;;20.50;66.40;;;;;;1996961;28;20353;-69
2022/07/15 04:11:30;;;;;;;;;;;20.50;66.30;;;;;;1996981;28;19913;-69
2022/07/15 04:12:28;;;;;;;;;;;20.50;66.30;;;;;;1996999;28;20280;-68
2022/07/15 04:13:27;;;;;;;;;;;20.50;66.40;;;;;;1996994;28;20340;-69
2022/07/15 04:14:25;;;;;;;;;;;20.50;66.30;;;;;;1997145;28;20007;-68
2022/07/15 04:15:24;;;;;;;;;;;20.50;66.30;;;;;;1997073;28;19937;-68
2022/07/15 04:16:22;;;;;;;;;;;20.50;66.30;;;;;;1997215;28;20005;-69
2022/07/15 04:17:21;;;;;;;;;;;20.50;66.30;;;;;;1996981;28;19974;-69
2022/07/15 04:18:19;;;;;;;;;;;20.50;66.30;;;;;;1996961;28;20333;-68
2022/07/15 04:19:18;;;;;;;;;;;20.50;66.30;;;;;;1996928;28;19912;-69
2022/07/15 04:20:16;;;;;;;;;;;20.50;66.20;;;;;;1996857;28;19937;-68
2022/07/15 04:21:15;;;;;;;;;;;20.50;66.30;;;;;;1997023;28;19973;-68
2022/07/15 04:22:13;;;;;;;;;;;20.50;66.30;;;;;;1996928;28;19909;-68
2022/07/15 04:23:12;;;;;;;;;;;20.50;66.20;;;;;;1997112;28;19906;-68
2022/07/15 04:24:11;;;;;;;;;;;20.50;66.20;;;;;;1996943;28;19906;-68
2022/07/15 04:25:11;;;;;;;;;;;20.50;66.20;;;;;;1996899;28;19957;-68
2022/07/15 04:26:10;;;;;;;;;;;20.50;66.30;;;;;;1996928;28;19912;-68
2022/07/15 04:27:08;;;;;;;;;;;20.50;66.20;;;;;;1996946;28;19916;-68
2022/07/15 04:28:07;;;;;;;;;;;20.50;66.20;;;;;;1996852;28;19909;-68
2022/07/15 04:29:05;;;;;;;;;;;20.50;66.20;;;;;;1996967;28;19905;-68
2022/07/15 04:30:08;;;;;;;;;;;20.50;66.20;;;;;;1996912;28;20372;-67
2022/07/15 04:31:06;;;;;;;;;;;20.50;66.20;;;;;;1996970;28;19906;-68
2022/07/15 04:32:04;;;;;;;;;;;20.50;66.20;;;;;;1996919;28;20386;-68
2022/07/15 04:33:03;;;;;;;;;;;20.50;66.20;;;;;;1996961;28;20353;-68
2022/07/15 04:34:01;;;;;;;;;;;20.50;66.20;;;;;;1996978;28;19905;-68
2022/07/15 04:35:01;;;;;;;;;;;20.50;66.10;;;;;;1996876;28;20340;-68
2022/07/15 04:36:00;;;;;;;;;;;20.50;66.20;;;;;;1996941;28;19906;-68
2022/07/15 04:36:58;;;;;;;;;;;20.50;66.20;;;;;;1996942;28;20221;-68
2022/07/15 04:37:57;;;;;;;;;;;20.50;66.20;;;;;;1997023;28;20108;-67
2022/07/15 04:38:55;;;;;;;;;;;20.50;66.10;;;;;;1996865;28;19906;-68
2022/07/15 04:39:54;;;;;;;;;;;20.50;66.20;;;;;;1998513;28;19905;-68
2022/07/15 04:40:53;;;;;;;;;;;20.50;66.10;;;;;;1998429;28;19906;-68
2022/07/15 04:41:53;;;;;;;;;;;20.50;66.10;;;;;;1998450;28;20264;-67
2022/07/15 04:42:52;;;;;;;;;;;20.50;66.10;;;;;;1998416;28;19906;-68
2022/07/15 04:43:50;;;;;;;;;;;20.50;66.20;;;;;;1998431;28;19905;-68
2022/07/15 04:44:49;;;;;;;;;;;20.50;66.10;;;;;;1997729;28;20379;-68
2022/07/15 04:45:47;;;;;;;;;;;20.40;66.00;;;;;;1997878;28;19948;-68
2022/07/15 04:46:46;;;;;;;;;;;20.50;66.20;;;;;;1998358;28;19913;-68
2022/07/15 04:47:44;;;;;;;;;;;20.50;66.20;;;;;;1998509;28;19905;-68
2022/07/15 04:51:19;;;;;;;;;;;20.40;66.10;;;;;;1998465;28;19949;-68
2022/07/15 04:52:17;;;;;;;;;;;20.50;66.10;;;;;;1998436;28;19929;-68
2022/07/15 04:53:16;;;;;;;;;;;20.50;66.20;;;;;;1998357;28;19906;-68
2022/07/15 04:54:14;;;;;;;;;;;20.50;66.20;;;;;;1998332;28;19910;-67
2022/07/15 04:55:14;;;;;;;;;;;20.50;66.20;;;;;;1998274;28;19914;-68
2022/07/15 04:56:12;;;;;;;;;;;20.50;66.20;;;;;;1998387;28;20352;-68
2022/07/15 04:57:14;;;;;;;;;;;20.40;66.10;;;;;;1998388;28;20108;-68
2022/07/15 04:58:14;;;;;;;;;;;20.50;66.20;;;;;;1998235;28;19906;-67
2022/07/15 04:59:12;;;;;;;;;;;20.50;66.20;;;;;;1998218;28;19912;-68
2022/07/15 05:00:11;;;;;;;;;;;20.50;66.20;;;;;;1998319;28;19905;-69
2022/07/15 05:01:09;;;;;;;;;;;20.50;66.20;;;;;;1998082;28;19918;-67
2022/07/15 05:02:08;;;;;;;;;;;20.40;66.00;;;;;;1998202;28;19984;-68
2022/07/15 05:03:06;;;;;;;;;;;20.50;66.20;;;;;;1998331;28;19928;-68
2022/07/15 05:04:05;;;;;;;;;;;20.40;66.10;;;;;;1998263;28;20413;-69
2022/07/15 05:05:03;;;;;;;;;;;20.50;66.20;;;;;;1998430;28;20359;-68
2022/07/15 05:06:02;;;;;;;;;;;20.50;66.20;;;;;;1998434;28;19906;-68
2022/07/15 05:07:00;;;;;;;;;;;20.50;66.20;;;;;;1998238;28;20349;-68
2022/07/15 05:07:59;;;;;;;;;;;20.40;66.10;;;;;;1998367;28;19910;-67
2022/07/15 05:08:57;;;;;;;;;;;20.40;66.10;;;;;;1998172;28;19916;-68
2022/07/15 05:09:56;;;;;;;;;;;20.50;66.20;;;;;;1998207;28;19905;-68
2022/07/15 05:10:54;;;;;;;;;;;20.50;66.20;;;;;;1998184;28;19917;-68
2022/07/15 05:11:53;;;;;;;;;;;20.50;66.20;;;;;;1998167;28;19925;-69
2022/07/15 05:12:51;;;;;;;;;;;20.50;66.20;;;;;;1998140;28;19952;-69
2022/07/15 05:13:50;;;;;;;;;;;20.50;66.20;;;;;;1998148;28;19906;-69
2022/07/15 05:14:49;;;;;;;;;;;20.50;66.20;;;;;;1998172;28;19917;-68
2022/07/15 05:15:48;;;;;;;;;;;20.40;66.10;;;;;;1998341;28;19909;-69
2022/07/15 05:16:46;;;;;;;;;;;20.50;66.20;;;;;;1998240;28;20367;-69
2022/07/15 05:17:45;;;;;;;;;;;20.40;66.10;;;;;;1998139;28;19905;-69
2022/07/15 05:18:44;;;;;;;;;;;20.50;66.20;;;;;;1998160;28;19912;-69
2022/07/15 05:19:44;;;;;;;;;;;20.50;66.20;;;;;;1998134;28;19944;-69
2022/07/15 05:20:42;;;;;;;;;;;20.40;66.20;;;;;;1998142;28;20353;-69
2022/07/15 05:21:41;;;;;;;;;;;20.50;66.30;;;;;;1998122;28;19906;-69
2022/07/15 05:22:39;;;;;;;;;;;20.50;66.20;;;;;;1998055;28;19905;-69
2022/07/15 05:23:38;;;;;;;;;;;20.50;66.20;;;;;;1997332;28;19905;-69
2022/07/15 05:24:36;;;;;;;;;;;20.50;66.30;;;;;;1997608;28;20283;-68
2022/07/15 05:25:35;;;;;;;;;;;20.40;66.20;;;;;;2004638;28;19909;-67
2022/07/15 05:26:34;;;;;;;;;;;20.50;66.40;;;;;;2005206;28;20380;-68
2022/07/15 05:27:32;;;;;;;;;;;20.50;66.40;;;;;;1998366;28;19905;-68
2022/07/15 05:28:31;;;;;;;;;;;20.40;66.20;;;;;;1998041;28;19913;-67
2022/07/15 05:29:29;;;;;;;;;;;20.40;66.20;;;;;;1998114;28;19913;-67
2022/07/15 05:30:27;;;;;;;;;;;20.50;66.20;;;;;;1997998;28;19910;-67
2022/07/15 05:31:27;;;;;;;;;;;20.40;66.10;;;;;;1997960;28;19987;-67
2022/07/15 05:32:25;;;;;;;;;;;20.40;66.10;;;;;;1997988;28;20333;-68
2022/07/15 05:33:24;;;;;;;;;;;20.50;66.30;;;;;;1998182;28;19905;-69
2022/07/15 05:34:22;;;;;;;;;;;20.40;66.20;;;;;;1997963;28;19979;-67
2022/07/15 05:35:21;;;;;;;;;;;20.40;66.20;;;;;;1997986;28;20371;-67
2022/07/15 05:36:20;;;;;;;;;;;20.40;66.20;;;;;;1997975;28;19941;-67
2022/07/15 05:37:19;;;;;;;;;;;20.40;66.20;;;;;;1998003;28;19906;-68
2022/07/15 05:38:17;;;;;;;;;;;20.50;66.30;;;;;;1998064;28;20348;-69
2022/07/15 05:39:16;;;;;;;;;;;20.40;66.30;;;;;;1998070;28;19913;-68
2022/07/15 05:40:15;;;;;;;;;;;20.50;66.30;;;;;;1998017;28;19914;-69
2022/07/15 05:41:14;;;;;;;;;;;20.40;66.30;;;;;;1998070;28;19906;-68
2022/07/15 05:42:12;;;;;;;;;;;20.50;66.40;;;;;;1997849;28;19917;-68
2022/07/15 05:43:11;;;;;;;;;;;20.50;66.40;;;;;;1997951;28;19910;-68
2022/07/15 05:44:09;;;;;;;;;;;20.40;66.20;;;;;;1997886;28;19906;-69
2022/07/15 05:45:08;;;;;;;;;;;20.50;66.40;;;;;;1998031;28;19910;-68
2022/07/15 05:46:06;;;;;;;;;;;20.50;66.40;;;;;;1997919;28;20416;-68
2022/07/15 05:47:05;;;;;;;;;;;20.40;66.30;;;;;;1998021;28;19906;-68
2022/07/15 05:48:03;;;;;;;;;;;20.50;66.30;;;;;;1997902;28;19927;-69